Time;durP1;ratioP1;P1;durP2;ratioP2;P2;SDS_P1;SDS_P2;PMS_P1;PMS_P2;Temp;Humidity;BMP_temperature;BMP_pressure;BME280_temperature;BME280_humidity;BME280_pressure;Samples;Min_cycle;Max_cycle;Signal;HPM_P1;HPM_P2
2021/08/20 00:01:34;;;;;;;7.42;5.58;;;;;;;23.12;48.54;101296.94;1663877;85;21516;-47
2021/08/20 00:04:03;;;;;;;5.83;5.22;;;;;;;23.10;48.33;101290.87;1664636;85;21060;-49
2021/08/20 00:06:32;;;;;;;6.65;5.10;;;;;;;23.08;48.32;101298.09;1664269;85;21477;-46
2021/08/20 00:08:58;;;;;;;8.65;5.28;;;;;;;23.04;48.42;101292.60;1670219;85;21084;-49
2021/08/20 00:11:25;;;;;;;8.15;5.87;;;;;;;23.01;48.34;101294.11;1652742;85;21044;-49
2021/08/20 00:13:53;;;;;;;6.47;5.85;;;;;;;22.97;48.42;101295.27;1665606;85;21036;-50
2021/08/20 00:16:20;;;;;;;5.80;5.30;;;;;;;22.96;48.55;101296.20;1666261;85;21076;-48
2021/08/20 00:18:46;;;;;;;6.78;5.30;;;;;;;22.95;48.41;101299.35;1665848;85;21040;-46
2021/08/20 00:21:15;;;;;;;8.13;6.37;;;;;;;22.94;48.13;101300.75;1663839;85;21080;-49
2021/08/20 00:23:43;;;;;;;8.23;6.70;;;;;;;22.89;48.15;101294.91;1665657;85;21093;-49
2021/08/20 00:26:11;;;;;;;10.43;7.47;;;;;;;22.84;48.09;101293.00;1663312;85;21063;-46
2021/08/20 00:28:39;;;;;;;8.33;6.60;;;;;;;22.78;48.43;101292.94;1663033;85;21076;-48
2021/08/20 00:31:07;;;;;;;10.75;7.55;;;;;;;22.77;48.66;101287.73;1663376;85;21476;-47
2021/08/20 00:33:35;;;;;;;11.83;7.62;;;;;;;22.76;48.68;101286.02;1664986;85;21036;-46
2021/08/20 00:36:05;;;;;;;9.03;7.05;;;;;;;22.76;48.80;101296.62;1663055;85;21109;-50
2021/08/20 00:41:12;;;;;;;9.58;6.30;;;;;;;22.76;48.64;101287.34;1606628;88;21096;-46
2021/08/20 00:43:40;;;;;;;10.18;6.47;;;;;;;22.76;48.52;101288.20;1610984;88;21086;-48
2021/08/20 00:46:07;;;;;;;9.23;6.60;;;;;;;22.77;48.31;101300.53;1609864;88;21052;-48
2021/08/20 00:48:33;;;;;;;7.37;6.12;;;;;;;22.78;48.56;101305.34;1618789;87;21077;-49
2021/08/20 00:51:25;;;;;;;8.73;6.62;;;;;;;22.78;48.51;101306.20;1615856;87;21475;-49
2021/08/20 00:53:54;;;;;;;6.33;5.62;;;;;;;22.78;48.38;101297.38;1619528;87;21465;-49
2021/08/20 00:56:21;;;;;;;7.75;6.12;;;;;;;22.76;48.28;101299.28;1608920;87;21117;-46
2021/08/20 00:58:50;;;;;;;7.20;5.80;;;;;;;22.74;48.30;101299.85;1581611;89;21116;-46
2021/08/20 01:01:18;;;;;;;8.23;6.35;;;;;;;22.71;48.38;101308.02;1600134;89;21524;-47
2021/08/20 01:03:46;;;;;;;7.53;6.45;;;;;;;22.65;48.51;101299.48;1606912;88;21151;-49
2021/08/20 01:06:13;;;;;;;8.08;5.72;;;;;;;22.59;48.67;101293.25;1623056;87;21529;-49
2021/08/20 01:08:41;;;;;;;7.70;6.50;;;;;;;22.55;48.54;101303.64;1606780;86;21047;-46
2021/08/20 01:11:10;;;;;;;6.87;6.15;;;;;;;22.49;48.74;101294.74;1614519;86;21019;-49
2021/08/20 01:13:41;;;;;;;8.45;6.12;;;;;;;22.47;48.93;101287.36;1622278;86;21055;-48
2021/08/20 01:16:08;;;;;;;6.60;5.60;;;;;;;22.47;48.99;101293.98;1609291;88;21540;-49
2021/08/20 01:18:39;;;;;;;8.50;6.60;;;;;;;22.48;48.99;101291.70;1609739;88;21576;-47
2021/08/20 01:21:12;;;;;;;6.78;5.90;;;;;;;22.47;49.02;101291.33;1595556;88;21607;-47
2021/08/20 01:23:39;;;;;;;8.23;6.33;;;;;;;22.45;48.91;101285.27;1582801;89;21036;-49
2021/08/20 01:26:08;;;;;;;8.08;6.62;;;;;;;22.44;49.16;101287.53;1591203;88;21116;-49
2021/08/20 01:28:35;;;;;;;8.30;6.95;;;;;;;22.43;49.00;101288.50;1578924;90;21608;-49
2021/08/20 01:31:08;;;;;;;8.10;6.47;;;;;;;22.42;49.15;101287.27;1544461;91;21602;-49
2021/08/20 01:33:35;;;;;;;7.92;6.87;;;;;;;22.41;49.24;101291.72;1540286;89;21580;-49
2021/08/20 01:36:04;;;;;;;8.03;6.72;;;;;;;22.41;49.19;101290.39;1518347;92;21196;-48
2021/08/20 01:38:31;;;;;;;8.25;6.42;;;;;;;22.41;49.11;101290.39;1567204;88;21535;-52
2021/08/20 01:40:59;;;;;;;8.90;6.33;;;;;;;22.39;48.96;101281.68;1556977;88;21168;-49
2021/08/20 01:43:26;;;;;;;8.35;7.17;;;;;;;22.39;49.08;101279.03;1559281;90;21067;-46
2021/08/20 01:45:52;;;;;;;9.65;6.50;;;;;;;22.37;49.09;101278.27;1539973;91;21603;-49
2021/08/20 01:48:19;;;;;;;12.40;8.08;;;;;;;22.37;49.04;101280.92;1547678;90;21069;-49
2021/08/20 01:50:46;;;;;;;12.43;7.83;;;;;;;22.38;49.26;101285.77;1546049;90;21105;-46
2021/08/20 01:53:13;;;;;;;10.48;7.42;;;;;;;22.39;49.37;101281.68;1523272;92;21134;-49
2021/08/20 01:55:41;;;;;;;9.58;7.15;;;;;;;22.40;49.46;101284.69;1545486;90;21096;-49
2021/08/20 01:58:08;;;;;;;9.03;6.90;;;;;;;22.42;49.42;101281.47;1575683;89;21051;-49
2021/08/20 02:00:38;;;;;;;13.22;7.67;;;;;;;22.43;49.38;101280.54;1578175;89;21571;-47
2021/08/20 02:03:06;;;;;;;9.95;7.15;;;;;;;22.43;49.44;101285.84;1523010;93;21707;-46
2021/08/20 02:05:34;;;;;;;9.98;6.85;;;;;;;22.41;49.54;101278.45;1558409;90;21082;-49
2021/08/20 02:08:05;;;;;;;9.35;6.80;;;;;;;22.39;49.89;101271.54;1526516;92;21095;-51
2021/08/20 02:10:32;;;;;;;9.38;6.58;;;;;;;22.36;50.14;101271.25;1575837;88;21067;-47
2021/08/20 02:12:59;;;;;;;9.60;6.12;;;;;;;22.36;50.36;101271.75;1575065;89;21167;-50
2021/08/20 02:15:28;;;;;;;7.37;6.30;;;;;;;22.34;50.73;101265.19;1571708;88;21050;-49
2021/08/20 02:17:56;;;;;;;9.03;6.45;;;;;;;22.33;51.12;101270.13;1579270;87;21586;-46
2021/08/20 02:20:25;;;;;;;9.40;6.60;;;;;;;22.33;51.40;101272.78;1597510;87;21037;-46
2021/08/20 02:22:53;;;;;;;6.92;5.92;;;;;;;22.34;51.69;101273.64;1620588;86;21683;-49
2021/08/20 02:25:20;;;;;;;6.83;5.60;;;;;;;22.35;52.13;101270.89;1619773;87;21085;-49
2021/08/20 02:27:48;;;;;;;10.48;6.15;;;;;;;22.40;52.51;101268.78;1597169;87;21082;-49
2021/08/20 02:30:17;;;;;;;6.33;5.53;;;;;;;22.41;52.73;101266.52;1643785;85;21025;-46
2021/08/20 02:32:47;;;;;;;8.70;5.97;;;;;;;22.44;53.08;101270.30;1660408;85;21060;-46
2021/08/20 02:35:15;;;;;;;8.85;6.83;;;;;;;22.47;53.30;101274.09;1670129;85;21070;-49
2021/08/20 02:37:42;;;;;;;7.20;6.20;;;;;;;22.48;53.17;101271.80;1670834;84;21048;-49
2021/08/20 02:40:11;;;;;;;7.65;6.28;;;;;;;22.51;53.15;101271.63;1672205;85;21048;-47
2021/08/20 02:42:40;;;;;;;7.87;6.00;;;;;;;22.52;53.29;101273.31;1673558;85;21040;-49
2021/08/20 02:45:08;;;;;;;7.40;6.37;;;;;;;22.53;53.20;101272.38;1671742;85;21038;-47
2021/08/20 02:47:36;;;;;;;8.75;6.42;;;;;;;22.56;53.47;101275.32;1680570;85;21592;-47
2021/08/20 02:50:03;;;;;;;9.15;5.92;;;;;;;22.58;53.63;101272.13;1670994;85;21202;-48
2021/08/20 02:52:30;;;;;;;10.18;6.60;;;;;;;22.59;53.52;101273.81;1670440;85;21056;-47
2021/08/20 02:54:58;;;;;;;10.53;6.70;;;;;;;22.59;53.40;101279.98;1671250;84;21115;-49
2021/08/20 02:57:29;;;;;;;6.92;5.95;;;;;;;22.60;53.82;101279.05;1668643;85;21024;-50
2021/08/20 02:59:57;;;;;;;8.03;6.50;;;;;;;22.62;53.96;101278.48;1666527;85;21091;-47
2021/08/20 03:02:24;;;;;;;8.85;6.67;;;;;;;22.63;53.79;101283.28;1677246;85;21099;-49
2021/08/20 03:04:51;;;;;;;9.23;6.70;;;;;;;22.62;53.33;101279.80;1673117;85;21035;-48
2021/08/20 03:07:18;;;;;;;7.35;6.10;;;;;;;22.61;53.02;101282.06;1673692;84;21052;-49
2021/08/20 03:09:45;;;;;;;9.23;6.20;;;;;;;22.61;53.35;101283.39;1674332;84;21025;-48
2021/08/20 03:12:12;;;;;;;37.63;9.43;;;;;;;22.62;53.59;101290.41;1659483;85;21021;-50
2021/08/20 03:14:42;;;;;;;10.20;6.33;;;;;;;22.61;53.33;101290.02;1671197;85;21064;-51
2021/08/20 03:17:09;;;;;;;7.37;6.55;;;;;;;22.59;53.49;101291.92;1666329;85;21091;-49
2021/08/20 03:19:39;;;;;;;10.35;6.22;;;;;;;22.59;53.30;101298.55;1672706;85;21787;-48
2021/08/20 03:22:06;;;;;;;7.80;6.85;;;;;;;22.60;53.50;101292.78;1666615;85;21608;-47
2021/08/20 03:24:33;;;;;;;8.33;6.55;;;;;;;22.59;53.42;101298.55;1668145;85;20997;-49
2021/08/20 03:27:02;;;;;;;9.08;6.28;;;;;;;22.59;53.68;101291.92;1662177;85;21534;-47
2021/08/20 03:29:29;;;;;;;12.20;7.53;;;;;;;22.60;53.50;101302.06;1657330;85;21084;-49
2021/08/20 03:31:58;;;;;;;9.08;6.53;;;;;;;22.56;52.86;101304.03;1661914;85;21198;-47
2021/08/20 03:34:26;;;;;;;8.50;6.83;;;;;;;22.53;53.09;101298.91;1720211;82;21574;-53
2021/08/20 03:36:55;;;;;;;10.23;6.90;;;;;;;22.51;53.18;101300.80;1725578;82;21074;-50
2021/08/20 03:39:36;;;;;;;9.98;6.80;;;;;;;22.49;53.24;101307.14;1723475;83;21066;-49
2021/08/20 03:42:04;;;;;;;8.48;6.70;;;;;;;22.48;53.46;101303.63;1712178;83;21085;-49
2021/08/20 03:44:33;;;;;;;11.48;6.60;;;;;;;22.48;53.58;101306.28;1649955;85;21057;-49
2021/08/20 03:46:59;;;;;;;12.20;7.00;;;;;;;22.46;53.53;101306.84;1671839;84;21641;-51
2021/08/20 03:49:26;;;;;;;8.23;6.62;;;;;;;22.45;54.13;101307.81;1676912;83;21123;-47
2021/08/20 03:51:55;;;;;;;8.88;6.75;;;;;;;22.43;54.09;101311.03;1677037;84;21052;-46
2021/08/20 03:54:24;;;;;;;12.90;6.90;;;;;;;22.43;53.81;101317.66;1680523;84;21074;-49
2021/08/20 03:56:51;;;;;;;7.95;6.47;;;;;;;22.42;53.44;101318.59;1679895;84;21117;-47
2021/08/20 03:59:20;;;;;;;9.40;6.62;;;;;;;22.41;53.95;101322.21;1672802;84;21130;-48
2021/08/20 04:01:47;;;;;;;9.23;6.55;;;;;;;22.41;54.02;101322.21;1680695;83;21586;-48
2021/08/20 04:04:15;;;;;;;9.28;7.10;;;;;;;22.40;54.14;101315.69;1721971;82;21034;-49
2021/08/20 04:06:49;;;;;;;11.78;6.40;;;;;;;22.40;54.10;101315.69;1719102;82;21069;-49
2021/08/20 04:09:17;;;;;;;7.45;5.95;;;;;;;22.40;54.44;101320.99;1718537;82;21069;-50
2021/08/20 04:11:46;;;;;;;9.40;6.53;;;;;;;22.40;54.31;101327.12;1714590;82;21131;-50
2021/08/20 04:14:17;;;;;;;7.97;6.28;;;;;;;22.41;54.10;101328.84;1715926;82;21057;-47
2021/08/20 04:16:45;;;;;;;8.98;6.55;;;;;;;22.41;54.35;101323.54;1719530;82;21077;-49
2021/08/20 04:19:13;;;;;;;10.68;7.17;;;;;;;22.43;54.62;101320.31;1724821;82;21159;-50
2021/08/20 04:21:41;;;;;;;11.43;6.42;;;;;;;22.44;54.35;101314.55;1722335;82;21077;-47
2021/08/20 04:24:12;;;;;;;7.62;6.33;;;;;;;22.45;53.82;101310.47;1717232;82;20991;-48
2021/08/20 04:26:39;;;;;;;9.18;6.67;;;;;;;22.46;53.99;101314.81;1706817;82;21067;-52
2021/08/20 04:29:24;;;;;;;7.58;6.28;;;;;;;22.47;53.64;101319.64;1724036;82;21015;-47
2021/08/20 04:32:03;;;;;;;10.23;6.87;;;;;;;22.47;53.77;101320.50;1657603;84;21699;-49
2021/08/20 04:34:32;;;;;;;7.00;6.30;;;;;;;22.49;53.60;101318.61;1631688;84;21017;-47
2021/08/20 04:37:09;;;;;;;8.63;6.25;;;;;;;22.50;53.85;101320.30;1632995;86;21077;-51
2021/08/20 04:39:56;;;;;;;7.97;6.78;;;;;;;22.55;54.08;101319.55;1605628;87;21177;-47
2021/08/20 04:42:27;;;;;;;7.42;6.58;;;;;;;22.60;53.88;101321.49;1645435;85;21016;-48
2021/08/20 04:45:02;;;;;;;8.50;6.45;;;;;;;22.63;53.47;101325.27;1676870;84;21032;-47
2021/08/20 04:47:39;;;;;;;8.83;5.37;;;;;;;22.69;53.34;101327.16;1653534;85;21555;-52
2021/08/20 04:50:09;;;;;;;11.78;9.08;;;;;;;22.70;53.11;101327.06;1666621;85;21173;-50
2021/08/20 04:52:41;;;;;;;8.13;6.50;;;;;;;22.73;53.14;101324.70;1652309;85;21099;-47
2021/08/20 04:55:26;;;;;;;8.70;6.60;;;;;;;22.75;52.98;101322.80;1680614;84;21026;-49
2021/08/20 04:57:53;;;;;;;13.55;6.72;;;;;;;22.77;52.86;101324.87;1674555;84;21005;-49
2021/08/20 05:00:20;;;;;;;10.25;8.10;;;;;;;22.78;52.70;101325.23;1678368;84;21177;-52
2021/08/20 05:02:48;;;;;;;10.55;6.58;;;;;;;22.78;52.32;101326.56;1656322;86;21151;-49
2021/08/20 05:05:14;;;;;;;8.90;6.00;;;;;;;22.78;52.51;101327.42;1674780;85;21526;-47
2021/08/20 05:07:41;;;;;;;8.03;6.17;;;;;;;22.79;52.29;101322.98;1648053;85;20998;-48
2021/08/20 05:10:12;;;;;;;7.65;5.28;;;;;;;22.81;52.05;101329.05;1635757;86;21034;-51
2021/08/20 05:12:40;;;;;;;9.50;5.58;;;;;;;22.83;52.62;101327.14;1674098;83;21022;-50
2021/08/20 05:15:08;;;;;;;10.28;6.25;;;;;;;22.87;52.63;101333.95;1645522;86;21075;-51
2021/08/20 05:17:37;;;;;;;8.73;5.53;;;;;;;22.91;52.76;101330.16;1650259;85;21568;-48
2021/08/20 05:20:05;;;;;;;8.48;6.28;;;;;;;22.95;52.59;101330.34;1655966;86;21517;-49
2021/08/20 05:22:53;;;;;;;8.20;5.47;;;;;;;23.00;52.24;101321.63;1654110;86;21200;-49
2021/08/20 05:25:21;;;;;;;8.70;5.80;;;;;;;23.04;51.89;101329.27;1647970;85;21612;-50
2021/08/20 05:27:48;;;;;;;11.70;5.28;;;;;;;23.08;51.55;101327.28;1647732;86;21045;-51
2021/08/20 05:30:15;;;;;;;9.75;5.80;;;;;;;23.10;51.30;101326.20;1648782;86;21033;-50
2021/08/20 05:32:42;;;;;;;7.17;5.67;;;;;;;23.16;51.78;101328.47;1647977;86;21060;-48
2021/08/20 05:35:12;;;;;;;9.10;5.55;;;;;;;23.25;51.91;101331.00;1649356;86;21069;-49
2021/08/20 05:37:39;;;;;;;8.10;5.73;;;;;;;23.40;50.96;101331.38;1643160;86;21267;-49
2021/08/20 05:40:07;;;;;;;7.20;5.50;;;;;;;23.40;50.96;101331.38;1655015;86;21711;-49
2021/08/20 05:42:34;;;;;;;6.33;5.25;;;;;;;23.47;50.57;101335.34;1664956;85;21556;-50
2021/08/20 05:45:00;;;;;;;6.87;5.97;;;;;;;23.51;50.22;101332.86;1679164;85;21042;-46
2021/08/20 05:47:27;;;;;;;6.42;5.83;;;;;;;23.57;50.55;101332.45;1678420;84;21228;-48
2021/08/20 05:49:54;;;;;;;11.25;8.15;;;;;;;23.60;50.44;101336.68;1672755;85;21057;-49
2021/08/20 05:52:20;;;;;;;13.88;10.82;;;;;;;23.64;50.15;101335.55;1670894;84;20985;-46
2021/08/20 05:54:47;;;;;;;11.55;10.40;;;;;;;23.68;50.33;101333.89;1680089;83;21561;-49
2021/08/20 05:57:14;;;;;;;9.80;7.70;;;;;;;23.71;50.66;101335.03;1675730;85;21058;-46
2021/08/20 05:59:41;;;;;;;7.72;6.97;;;;;;;23.77;50.56;101335.09;1687830;84;21008;-48
2021/08/20 06:02:10;;;;;;;7.45;6.65;;;;;;;23.81;50.14;101337.44;1689906;84;21104;-49
2021/08/20 06:04:36;;;;;;;8.35;5.33;;;;;;;23.88;50.11;101328.11;1681095;85;21787;-49
2021/08/20 06:07:07;;;;;;;8.58;6.50;;;;;;;24.01;50.21;101325.44;1677203;83;20987;-49
2021/08/20 06:09:34;;;;;;;6.78;5.45;;;;;;;24.17;49.80;101334.95;1690274;84;21598;-46
2021/08/20 06:12:00;;;;;;;9.38;6.62;;;;;;;24.32;49.14;101330.88;1657469;85;21144;-47
2021/08/20 06:14:29;;;;;;;9.55;6.20;;;;;;;24.41;48.75;101327.56;1652875;85;21046;-46
2021/08/20 06:16:57;;;;;;;8.75;5.80;;;;;;;24.47;48.77;101331.13;1650758;85;21006;-48
2021/08/20 06:19:26;;;;;;;7.75;5.83;;;;;;;24.50;48.30;101325.59;1653012;85;21010;-49
2021/08/20 06:21:53;;;;;;;9.13;5.95;;;;;;;24.52;48.20;101323.68;1639439;85;21104;-50
2021/08/20 06:24:21;;;;;;;6.40;5.62;;;;;;;24.53;47.66;101318.72;1642703;86;21106;-48
2021/08/20 06:26:48;;;;;;;8.43;6.08;;;;;;;24.57;47.48;101318.87;1631172;86;21009;-48
2021/08/20 06:29:20;;;;;;;6.72;6.08;;;;;;;24.60;47.40;101324.84;1625119;87;20999;-50
2021/08/20 06:31:48;;;;;;;7.62;5.70;;;;;;;24.60;47.45;101316.86;1627091;87;21006;-49
2021/08/20 06:34:17;;;;;;;7.20;5.15;;;;;;;24.59;47.03;101317.80;1626526;86;21013;-47
2021/08/20 06:36:44;;;;;;;9.13;6.45;;;;;;;24.57;47.49;101325.52;1617320;87;21033;-49
2021/08/20 06:39:12;;;;;;;6.42;5.58;;;;;;;24.61;47.68;101328.33;1653585;84;21686;-49
2021/08/20 06:41:39;;;;;;;7.00;5.90;;;;;;;24.65;47.24;101321.83;1644347;86;21150;-47
2021/08/20 06:44:06;;;;;;;6.17;5.12;;;;;;;24.70;47.44;101325.03;1651830;84;21047;-47
2021/08/20 06:46:33;;;;;;;7.08;6.05;;;;;;;24.72;47.78;101326.63;1645752;85;20965;-48
2021/08/20 06:49:00;;;;;;;5.85;5.25;;;;;;;24.75;47.42;101328.27;1645875;86;21538;-49
2021/08/20 06:51:26;;;;;;;6.70;5.58;;;;;;;24.77;47.31;101323.68;1656445;85;21081;-49
2021/08/20 06:53:53;;;;;;;8.75;5.92;;;;;;;24.78;47.27;101322.70;1653189;85;21163;-49
2021/08/20 06:56:20;;;;;;;7.42;6.10;;;;;;;24.75;47.29;101323.77;1637616;85;21135;-50
2021/08/20 06:58:46;;;;;;;8.18;5.80;;;;;;;24.74;47.34;101319.89;1649496;85;21616;-48
2021/08/20 07:01:16;;;;;;;6.28;5.17;;;;;;;24.73;47.56;101324.83;1640593;86;21069;-47
2021/08/20 07:03:42;;;;;;;9.15;6.20;;;;;;;24.73;47.26;101322.16;1677540;83;21073;-50
2021/08/20 07:06:22;;;;;;;9.43;5.55;;;;;;;24.74;47.35;101326.55;1683087;84;21102;-50
2021/08/20 07:08:49;;;;;;;10.03;5.92;;;;;;;24.77;47.48;101329.00;1724656;82;21007;-51
2021/08/20 07:11:20;;;;;;;8.20;5.95;;;;;;;24.79;47.65;101324.42;1724379;82;21517;-48
2021/08/20 07:13:48;;;;;;;7.25;5.80;;;;;;;24.81;47.66;101325.16;1678897;83;22204;-48
2021/08/20 07:16:15;;;;;;;7.85;5.55;;;;;;;24.85;47.76;101330.62;1682727;83;21059;-48
2021/08/20 07:18:42;;;;;;;8.90;5.85;;;;;;;24.86;47.43;101326.52;1732564;81;22751;-50
2021/08/20 07:21:09;;;;;;;7.00;6.17;;;;;;;24.89;47.44;101324.13;1730650;82;21565;-49
2021/08/20 07:23:35;;;;;;;7.62;5.87;;;;;;;24.94;47.70;101323.30;1729420;82;21073;-50
2021/08/20 07:26:05;;;;;;;7.28;6.15;;;;;;;24.99;47.65;101327.81;1728867;81;21062;-50
2021/08/20 07:28:32;;;;;;;6.72;6.03;;;;;;;25.06;47.67;101327.72;1726079;81;21038;-49
2021/08/20 07:30:59;;;;;;;8.10;5.95;;;;;;;25.12;47.20;101323.31;1731568;81;21106;-51
2021/08/20 07:33:25;;;;;;;9.18;5.60;;;;;;;25.17;46.59;101335.79;1733305;82;21039;-50
2021/08/20 07:35:52;;;;;;;7.53;6.00;;;;;;;25.20;46.97;101324.07;1731407;83;21439;-49
2021/08/20 07:38:20;;;;;;;8.55;6.08;;;;;;;25.23;47.01;101326.02;1732873;82;21046;-51
2021/08/20 07:40:48;;;;;;;8.28;6.03;;;;;;;25.25;46.57;101322.76;1732577;82;21532;-50
2021/08/20 07:43:17;;;;;;;5.75;5.10;;;;;;;25.29;46.30;101322.90;1686433;84;21022;-47
2021/08/20 07:45:44;;;;;;;9.15;6.72;;;;;;;25.32;46.41;101328.02;1677605;84;21113;-50
2021/08/20 07:48:12;;;;;;;8.65;6.62;;;;;;;25.35;46.11;101333.09;1684013;83;20994;-49
2021/08/20 07:50:41;;;;;;;8.88;5.72;;;;;;;25.38;46.39;101330.22;1673823;84;21059;-51
2021/08/20 07:53:08;;;;;;;9.50;5.37;;;;;;;25.43;46.26;101325.92;1674195;84;22588;-50
2021/08/20 07:55:35;;;;;;;6.92;5.87;;;;;;;25.48;46.14;101335.27;1715885;82;21048;-48
2021/08/20 07:58:03;;;;;;;8.48;6.00;;;;;;;25.52;45.86;101331.41;1720778;81;21027;-50
2021/08/20 08:00:30;;;;;;;6.28;5.67;;;;;;;25.55;46.20;101333.86;1733470;82;20987;-49
2021/08/20 08:02:57;;;;;;;8.25;5.70;;;;;;;25.59;46.42;101322.00;1728124;82;20999;-50
2021/08/20 08:05:25;;;;;;;5.50;4.67;;;;;;;25.64;45.17;101329.15;1719744;82;21019;-48
2021/08/20 08:07:52;;;;;;;7.30;5.42;;;;;;;25.69;44.99;101332.81;1726436;82;21017;-50
2021/08/20 08:10:18;;;;;;;8.35;5.30;;;;;;;25.74;45.03;101335.48;1711185;82;21093;-48
2021/08/20 08:12:45;;;;;;;6.70;5.42;;;;;;;25.79;44.72;101332.00;1721493;82;21553;-47
2021/08/20 08:15:12;;;;;;;6.05;5.37;;;;;;;25.84;44.68;101335.14;1727658;82;21498;-48
2021/08/20 08:17:41;;;;;;;7.92;6.33;;;;;;;25.89;44.20;101328.61;1732753;82;21015;-48
2021/08/20 08:20:10;;;;;;;8.35;5.30;;;;;;;25.95;44.88;101326.81;1730715;82;21015;-50
2021/08/20 08:22:37;;;;;;;8.30;5.08;;;;;;;26.05;44.48;101321.98;1721099;82;21028;-48
2021/08/20 08:25:05;;;;;;;9.53;6.20;;;;;;;26.05;44.48;101321.98;1711552;80;21062;-48
2021/08/20 08:27:32;;;;;;;7.53;5.67;;;;;;;26.11;44.53;101321.55;1725089;81;20990;-50
2021/08/20 08:30:01;;;;;;;7.22;4.75;;;;;;;26.18;44.58;101323.26;1733055;81;21034;-50
2021/08/20 08:32:28;;;;;;;6.15;4.67;;;;;;;26.23;43.74;101322.43;1728249;81;21120;-51
2021/08/20 08:34:54;;;;;;;6.95;5.10;;;;;;;26.34;44.49;101318.42;1733143;82;20975;-49
2021/08/20 08:37:23;;;;;;;8.95;4.83;;;;;;;26.34;44.49;101318.42;1729107;81;21034;-49
2021/08/20 08:39:50;;;;;;;7.35;4.85;;;;;;;26.42;42.87;101312.02;1730186;82;21581;-50
2021/08/20 08:42:17;;;;;;;11.03;4.53;;;;;;;26.50;42.08;101317.60;1729688;81;21078;-49
2021/08/20 08:44:43;;;;;;;6.15;4.70;;;;;;;26.52;42.24;101304.98;1683240;84;21014;-53
2021/08/20 08:47:16;;;;;;;11.85;5.00;;;;;;;26.52;42.24;101304.98;1682974;83;20979;-50
2021/08/20 08:49:44;;;;;;;10.05;4.80;;;;;;;26.61;41.94;101318.91;1681674;83;21020;-49
2021/08/20 08:52:10;;;;;;;6.45;3.98;;;;;;;26.65;41.79;101317.70;1675933;83;21122;-48
2021/08/20 08:54:38;;;;;;;11.33;4.33;;;;;;;26.70;42.21;101312.85;1675564;85;21009;-51
2021/08/20 08:57:05;;;;;;;6.03;4.15;;;;;;;26.78;42.50;101322.46;1678618;85;21021;-51
2021/08/20 08:59:32;;;;;;;5.25;4.25;;;;;;;26.83;42.17;101321.59;1673879;85;21284;-50
2021/08/20 09:02:19;;;;;;;8.40;5.30;;;;;;;26.89;41.91;101324.27;1668916;85;21102;-49
2021/08/20 09:04:57;;;;;;;6.30;4.28;;;;;;;26.92;41.55;101323.53;1660326;85;21089;-47
2021/08/20 09:07:24;;;;;;;6.08;4.55;;;;;;;26.98;40.97;101319.50;1654784;85;21150;-49
2021/08/20 09:10:24;;;;;;;13.48;4.60;;;;;;;27.02;40.52;101324.95;1647912;86;21043;-52
2021/08/20 09:12:58;;;;;;;4.33;3.92;;;;;;;27.06;40.21;101331.27;1647281;85;21075;-55
2021/08/20 09:15:29;;;;;;;5.70;4.28;;;;;;;27.13;40.25;101324.94;1647167;87;21100;-53
2021/08/20 09:17:59;;;;;;;6.92;4.45;;;;;;;27.17;39.96;101325.05;1646999;87;21703;-49
2021/08/20 09:20:34;;;;;;;6.10;4.00;;;;;;;27.22;39.94;101321.02;1648194;85;21576;-50
2021/08/20 09:23:06;;;;;;;4.95;3.92;;;;;;;27.28;39.18;101329.90;1644746;87;21524;-51
2021/08/20 09:25:37;;;;;;;7.70;4.53;;;;;;;27.34;39.59;101328.09;1602896;88;21142;-48
2021/08/20 09:28:19;;;;;;;5.92;4.62;;;;;;;27.41;39.20;101320.89;1604488;88;21067;-48
2021/08/20 09:30:59;;;;;;;4.65;4.22;;;;;;;27.47;39.35;101327.06;1590022;89;21122;-52
2021/08/20 09:33:33;;;;;;;10.67;5.23;;;;;;;27.51;38.82;101321.83;1618471;86;21074;-53
2021/08/20 09:36:09;;;;;;;4.65;4.22;;;;;;;27.56;38.64;101322.27;1623732;88;21041;-49
2021/08/20 09:38:40;;;;;;;5.40;4.22;;;;;;;27.60;39.63;101316.55;1625215;87;21139;-50
2021/08/20 09:43:40;;;;;;;6.45;4.40;;;;;;;27.69;38.39;101327.81;1574282;90;21117;-49
2021/08/20 09:46:12;;;;;;;6.08;4.20;;;;;;;27.73;38.05;101324.39;1553654;90;21105;-48
2021/08/20 09:48:50;;;;;;;5.15;4.28;;;;;;;27.75;38.26;101329.12;1554697;90;21598;-50
2021/08/20 09:51:51;;;;;;;4.58;4.17;;;;;;;27.78;39.41;101335.56;1584345;90;21140;-50
2021/08/20 09:54:21;;;;;;;10.70;4.40;;;;;;;27.81;39.33;101329.94;1564983;90;21052;-51
2021/08/20 09:56:48;;;;;;;8.60;4.65;;;;;;;27.88;38.41;101333.80;1567273;91;21870;-48
2021/08/20 09:59:15;;;;;;;4.58;4.15;;;;;;;27.95;38.21;101330.95;1570750;90;21061;-49
2021/08/20 10:01:47;;;;;;;9.83;5.28;;;;;;;28.00;37.86;101332.78;1576968;90;21079;-51
2021/08/20 10:04:15;;;;;;;;;;;;;;;28.04;37.17;101343.10;1582558;89;21026;-49
2021/08/20 10:06:47;;;;;;;4.92;4.00;;;;;;;28.08;36.92;101331.64;1589871;90;20165;-50
2021/08/20 10:09:20;;;;;;;5.37;3.98;;;;;;;28.10;36.54;101333.69;1593883;89;21631;-50
2021/08/20 10:11:50;;;;;;;5.35;4.45;;;;;;;28.11;36.48;101336.23;1589824;89;21122;-48
2021/08/20 10:14:19;;;;;;;4.77;3.90;;;;;;;28.13;36.49;101335.61;1601045;88;21092;-46
2021/08/20 10:16:47;;;;;;;8.48;3.85;;;;;;;28.16;36.21;101332.68;1604173;87;21368;-49
2021/08/20 10:19:14;;;;;;;10.15;6.40;;;;;;;28.21;37.64;101332.77;1574685;90;21053;-47
2021/08/20 10:21:43;;;;;;;6.12;4.65;;;;;;;28.22;37.29;101331.30;1583842;89;21122;-50
2021/08/20 10:24:11;;;;;;;6.42;3.98;;;;;;;28.25;36.70;101327.03;1574674;89;21073;-48
2021/08/20 10:26:42;;;;;;;15.68;5.28;;;;;;;28.29;36.57;101331.13;1590465;90;21040;-49
2021/08/20 10:29:10;;;;;;;9.30;4.92;;;;;;;28.33;36.04;101327.21;1600782;88;21636;-54
2021/08/20 10:31:37;;;;;;;5.97;4.60;;;;;;;28.35;35.68;101330.60;1597503;89;21070;-47
2021/08/20 10:34:30;;;;;;;7.03;4.85;;;;;;;28.38;35.59;101323.62;1593560;88;21051;-51
2021/08/20 10:37:28;;;;;;;8.08;5.00;;;;;;;28.43;35.89;101330.78;1543472;92;21149;-48
2021/08/20 10:39:57;;;;;;;5.17;4.30;;;;;;;28.48;35.44;101322.36;1538544;92;21132;-49
2021/08/20 10:42:37;;;;;;;8.75;4.30;;;;;;;28.53;35.49;101328.14;1550585;90;21084;-49
2021/08/20 10:45:12;;;;;;;8.20;4.50;;;;;;;28.59;36.31;101315.09;1494184;94;21097;-50
2021/08/20 10:47:40;;;;;;;9.53;5.65;;;;;;;28.65;35.42;101314.55;1484093;94;21093;-49
2021/08/20 10:50:14;;;;;;;7.92;4.45;;;;;;;28.69;35.27;101321.33;1514510;93;21083;-48
2021/08/20 10:52:49;;;;;;;8.05;4.50;;;;;;;28.73;35.64;101320.07;1512195;93;22484;-47
2021/08/20 10:55:30;;;;;;;5.83;4.22;;;;;;;28.74;34.71;101317.77;1528360;91;21088;-50
2021/08/20 10:58:00;;;;;;;9.43;3.90;;;;;;;28.77;34.80;101313.45;1504788;93;21599;-48
2021/08/20 11:00:29;;;;;;;5.03;4.12;;;;;;;28.82;34.56;101321.95;1512736;94;21006;-48
2021/08/20 11:02:58;;;;;;;6.05;4.45;;;;;;;28.86;34.78;101311.31;1517768;94;21104;-49
2021/08/20 11:05:49;;;;;;;6.33;4.25;;;;;;;28.86;35.38;101316.67;1508188;94;21120;-48
2021/08/20 11:08:33;;;;;;;5.30;4.50;;;;;;;28.86;35.30;101312.65;1503325;93;21073;-49
2021/08/20 11:11:02;;;;;;;4.97;4.55;;;;;;;28.88;35.12;101316.04;1513671;92;21699;-50
2021/08/20 11:13:30;;;;;;;6.47;5.87;;;;;;;28.89;34.87;101315.03;1530115;89;21188;-48
2021/08/20 11:15:58;;;;;;;6.83;5.25;;;;;;;28.92;35.83;101321.48;1568126;90;21499;-52
2021/08/20 11:18:45;;;;;;;7.25;5.00;;;;;;;28.95;35.52;101313.14;1590682;89;21129;-50
2021/08/20 11:21:44;;;;;;;6.60;4.10;;;;;;;28.98;34.94;101314.23;1547857;88;21029;-51
2021/08/20 11:24:18;;;;;;;7.85;4.08;;;;;;;29.00;35.01;101311.40;1580013;89;21625;-50
2021/08/20 11:26:45;;;;;;;5.47;4.08;;;;;;;29.02;34.44;101313.97;1559955;90;21084;-49
2021/08/20 11:29:13;;;;;;;7.95;4.22;;;;;;;29.04;35.15;101310.14;1552846;90;21587;-48
2021/08/20 11:31:42;;;;;;;4.30;3.80;;;;;;;29.07;34.01;101306.34;1546694;90;21554;-51
2021/08/20 11:34:09;;;;;;;6.22;4.03;;;;;;;29.09;33.87;101304.37;1540986;91;21054;-48
2021/08/20 11:36:42;;;;;;;5.67;3.67;;;;;;;29.12;34.27;101308.13;1548669;91;21728;-49
2021/08/20 11:39:07;;;;;;;5.20;3.62;;;;;;;29.13;34.27;101305.78;1580750;89;21099;-49
2021/08/20 11:41:42;;;;;;;4.30;3.90;;;;;;;29.14;34.55;101299.45;1575416;90;21041;-50